Time;durP1;ratioP1;P1;durP2;ratioP2;P2;SDS_P1;SDS_P2;PMS_P1;PMS_P2;Temp;Humidity;BMP_temperature;BMP_pressure;BME280_temperature;BME280_humidity;BME280_pressure;Samples;Min_cycle;Max_cycle;Signal;HPM_P1;HPM_P2
2021/09/12 00:01:52;;;;;;;8.65;7.75;;;15.00;99.90;;;;;;5034088;28;20226;-90
2021/09/12 00:04:20;;;;;;;7.78;6.90;;;14.90;99.90;;;;;;5044089;28;20204;-90
2021/09/12 00:06:48;;;;;;;9.00;6.30;;;14.90;99.90;;;;;;5045840;28;20320;-90
2021/09/12 00:09:15;;;;;;;10.27;6.68;;;14.90;99.90;;;;;;5042781;28;20194;-91
2021/09/12 00:11:42;;;;;;;8.55;6.57;;;15.00;99.90;;;;;;5046713;28;20225;-90
2021/09/12 00:14:09;;;;;;;7.20;6.50;;;15.00;99.90;;;;;;5053305;28;20200;-90
2021/09/12 00:16:36;;;;;;;8.75;6.90;;;15.10;99.90;;;;;;5047496;28;20257;-91
2021/09/12 00:19:03;;;;;;;6.88;6.18;;;15.10;99.90;;;;;;5056410;28;20242;-90
2021/09/12 00:21:31;;;;;;;7.03;6.43;;;15.10;99.90;;;;;;5052872;28;20298;-90
2021/09/12 00:23:58;;;;;;;6.95;6.30;;;15.10;99.90;;;;;;5047042;28;20206;-90
2021/09/12 00:26:25;;;;;;;7.45;6.45;;;15.10;99.90;;;;;;5044381;28;20247;-90
2021/09/12 00:28:53;;;;;;;8.50;6.47;;;15.00;99.90;;;;;;5051142;28;20289;-89
2021/09/12 00:31:20;;;;;;;7.43;6.72;;;15.00;99.90;;;;;;5043686;28;20237;-90
2021/09/12 00:33:47;;;;;;;8.60;6.80;;;15.00;99.90;;;;;;5052373;28;20224;-90
2021/09/12 00:36:14;;;;;;;6.75;5.95;;;14.80;99.90;;;;;;5046986;28;20222;-90
2021/09/12 00:38:45;;;;;;;6.72;6.03;;;14.90;99.90;;;;;;5047156;28;20202;-89
2021/09/12 00:41:12;;;;;;;6.57;5.60;;;14.90;99.90;;;;;;5046976;28;20226;-90
2021/09/12 00:43:39;;;;;;;7.10;6.40;;;14.80;99.90;;;;;;5055985;28;20910;-90
2021/09/12 00:46:07;;;;;;;6.85;6.25;;;14.80;99.90;;;;;;5044428;28;20229;-90
2021/09/12 00:48:34;;;;;;;8.45;6.35;;;14.80;99.90;;;;;;5048376;28;20627;-90
2021/09/12 00:51:01;;;;;;;9.73;6.60;;;14.80;99.90;;;;;;5046800;28;20205;-90
2021/09/12 00:53:32;;;;;;;7.05;6.35;;;14.80;99.90;;;;;;5045889;28;20282;-91
2021/09/12 00:56:02;;;;;;;7.88;6.00;;;14.80;99.90;;;;;;5054155;28;20301;-90
2021/09/12 00:58:29;;;;;;;6.85;6.15;;;14.80;99.90;;;;;;5039477;28;20266;-89
2021/09/12 01:00:57;;;;;;;7.88;6.95;;;14.80;99.90;;;;;;5042206;28;20681;-90
2021/09/12 01:03:24;;;;;;;10.27;6.55;;;14.80;99.90;;;;;;5058377;28;20261;-90
2021/09/12 01:05:51;;;;;;;7.53;6.70;;;14.70;99.90;;;;;;5044812;28;20290;-90
2021/09/12 01:08:20;;;;;;;6.90;6.20;;;14.60;99.90;;;;;;5059056;28;20198;-90
2021/09/12 01:10:48;;;;;;;6.47;5.88;;;14.70;99.90;;;;;;5051463;28;20201;-90
2021/09/12 01:13:17;;;;;;;6.75;6.05;;;14.70;99.90;;;;;;5044212;28;20236;-91
2021/09/12 01:15:44;;;;;;;8.13;6.43;;;14.70;99.90;;;;;;5058517;28;20290;-91
2021/09/12 01:18:11;;;;;;;6.80;6.20;;;14.60;99.90;;;;;;5045727;28;20214;-90
2021/09/12 01:20:38;;;;;;;7.38;6.20;;;14.50;99.90;;;;;;5049439;28;20255;-90
2021/09/12 01:23:06;;;;;;;7.30;6.60;;;14.40;99.90;;;;;;5057874;28;20230;-90
2021/09/12 01:25:36;;;;;;;7.82;7.05;;;14.50;99.90;;;;;;5056345;28;20202;-90
2021/09/12 01:28:04;;;;;;;9.18;6.80;;;14.60;99.90;;;;;;5047304;28;20680;-91
2021/09/12 01:30:31;;;;;;;8.45;6.90;;;14.50;99.90;;;;;;5045830;28;20203;-90
2021/09/12 01:32:58;;;;;;;7.20;6.47;;;14.50;99.90;;;;;;5054125;28;20225;-90
2021/09/12 01:35:25;;;;;;;6.90;6.30;;;14.50;99.90;;;;;;5047384;28;20202;-90
2021/09/12 01:37:52;;;;;;;7.20;6.50;;;14.50;99.90;;;;;;5048987;28;20237;-89
2021/09/12 01:40:19;;;;;;;7.07;6.38;;;14.50;99.90;;;;;;5045052;28;20202;-90
2021/09/12 01:42:48;;;;;;;6.95;6.22;;;14.40;99.90;;;;;;5047813;28;20221;-89
2021/09/12 01:45:15;;;;;;;7.22;5.82;;;14.40;99.90;;;;;;5049629;28;20688;-90
2021/09/12 01:47:46;;;;;;;7.82;6.57;;;14.30;99.90;;;;;;5047232;28;20292;-90
2021/09/12 01:50:13;;;;;;;6.72;6.05;;;14.20;99.90;;;;;;5046212;28;21205;-90
2021/09/12 01:52:40;;;;;;;8.13;6.13;;;14.30;99.90;;;;;;5053849;28;20301;-90
2021/09/12 01:55:08;;;;;;;6.75;6.15;;;14.30;99.90;;;;;;5039898;28;20217;-89
2021/09/12 01:57:35;;;;;;;7.00;6.30;;;14.40;99.90;;;;;;5052720;28;20648;-90
2021/09/12 02:00:05;;;;;;;9.57;6.53;;;14.40;99.90;;;;;;5044623;28;20225;-90
2021/09/12 02:02:33;;;;;;;7.90;6.10;;;14.30;99.90;;;;;;5056654;28;20232;-89
2021/09/12 02:05:00;;;;;;;8.35;6.40;;;14.20;99.90;;;;;;5042998;28;20208;-90
2021/09/12 02:07:27;;;;;;;7.35;6.65;;;14.20;99.90;;;;;;5053002;28;20314;-91
2021/09/12 02:09:54;;;;;;;7.18;6.20;;;14.10;99.90;;;;;;5049623;28;20219;-89
2021/09/12 02:12:24;;;;;;;7.13;6.43;;;14.10;99.90;;;;;;5047337;28;20303;-90
2021/09/12 02:14:52;;;;;;;7.32;6.57;;;14.10;99.90;;;;;;5050999;28;20206;-91
2021/09/12 02:17:22;;;;;;;7.97;6.00;;;14.10;99.90;;;;;;5048768;28;20221;-90
2021/09/12 02:19:49;;;;;;;9.07;6.15;;;14.20;99.90;;;;;;5057301;28;20293;-90
2021/09/12 02:22:16;;;;;;;6.45;5.93;;;14.20;99.90;;;;;;5049587;28;20226;-90
2021/09/12 02:24:43;;;;;;;6.90;5.95;;;14.30;99.90;;;;;;5040592;28;20262;-90
2021/09/12 02:27:10;;;;;;;5.95;5.45;;;14.20;99.90;;;;;;5047379;28;20309;-89
2021/09/12 02:29:37;;;;;;;6.15;5.55;;;14.10;99.90;;;;;;5045223;28;20224;-90
2021/09/12 02:32:05;;;;;;;7.18;6.43;;;14.10;99.90;;;;;;5050479;28;20286;-89
2021/09/12 02:34:34;;;;;;;6.80;5.85;;;14.00;99.90;;;;;;5059108;28;20229;-90
2021/09/12 02:37:01;;;;;;;6.18;5.50;;;14.00;99.90;;;;;;5045450;28;20241;-89
2021/09/12 02:39:28;;;;;;;5.72;5.18;;;14.00;99.90;;;;;;5051443;28;20265;-89
2021/09/12 02:41:56;;;;;;;6.82;5.88;;;14.00;99.90;;;;;;5049180;28;20230;-90
2021/09/12 02:44:23;;;;;;;6.45;5.85;;;13.90;99.90;;;;;;5056259;28;20210;-90
2021/09/12 02:46:50;;;;;;;7.70;6.00;;;13.90;99.90;;;;;;5057030;28;20308;-90
2021/09/12 02:49:17;;;;;;;6.50;5.57;;;13.90;99.90;;;;;;5051951;28;20270;-89
2021/09/12 02:51:46;;;;;;;6.43;5.80;;;13.90;99.90;;;;;;5056065;28;20229;-90
2021/09/12 02:54:13;;;;;;;7.25;6.18;;;13.90;99.90;;;;;;5060772;28;20193;-89
2021/09/12 02:56:40;;;;;;;7.68;5.72;;;13.90;99.90;;;;;;5044900;28;20653;-90
2021/09/12 02:59:07;;;;;;;7.60;6.05;;;14.00;99.90;;;;;;5053668;28;20233;-91
2021/09/12 03:01:34;;;;;;;6.18;5.50;;;13.90;99.90;;;;;;5057908;28;20233;-90
2021/09/12 03:04:01;;;;;;;7.75;6.05;;;13.80;99.90;;;;;;5056424;28;20698;-91
2021/09/12 03:06:28;;;;;;;6.28;5.65;;;13.80;99.90;;;;;;5052569;28;20309;-91
2021/09/12 03:08:57;;;;;;;6.68;5.97;;;13.80;99.90;;;;;;5052916;28;20206;-90
2021/09/12 03:11:23;;;;;;;8.32;6.22;;;13.80;99.90;;;;;;5057351;28;20224;-90
2021/09/12 03:13:51;;;;;;;6.68;5.88;;;13.70;99.90;;;;;;5052431;28;20273;-89
2021/09/12 03:16:18;;;;;;;8.93;5.90;;;13.70;99.90;;;;;;5047176;28;20740;-90
2021/09/12 03:18:45;;;;;;;6.28;5.78;;;13.70;99.90;;;;;;5044704;28;20378;-90
2021/09/12 03:21:12;;;;;;;6.32;5.20;;;13.80;99.90;;;;;;5052786;28;20233;-90
2021/09/12 03:23:39;;;;;;;7.88;6.00;;;13.90;99.90;;;;;;5050895;28;20225;-90
2021/09/12 03:26:08;;;;;;;8.35;6.20;;;13.80;99.90;;;;;;5055360;28;20601;-90
2021/09/12 03:28:35;;;;;;;6.95;6.03;;;13.80;99.90;;;;;;5051383;28;20229;-90
2021/09/12 03:31:02;;;;;;;8.52;6.07;;;13.70;99.90;;;;;;5057677;28;20620;-90
2021/09/12 03:33:29;;;;;;;7.30;5.60;;;13.70;99.90;;;;;;5043197;28;20301;-90
2021/09/12 03:35:56;;;;;;;7.75;5.80;;;13.80;99.90;;;;;;5049510;28;20724;-90
2021/09/12 03:38:23;;;;;;;7.68;6.03;;;13.80;99.90;;;;;;5046732;28;20205;-90
2021/09/12 03:40:50;;;;;;;8.98;6.05;;;13.70;99.90;;;;;;5055363;28;20720;-90
2021/09/12 03:43:19;;;;;;;7.93;6.03;;;13.80;99.90;;;;;;5053745;28;20260;-90
2021/09/12 03:45:46;;;;;;;8.38;5.95;;;13.80;99.90;;;;;;5049942;28;20262;-90
2021/09/12 03:48:13;;;;;;;6.47;5.70;;;13.80;99.90;;;;;;5040202;28;20201;-90
2021/09/12 03:50:40;;;;;;;6.88;5.65;;;13.80;99.90;;;;;;5053970;28;20300;-90
2021/09/12 03:53:07;;;;;;;6.18;5.03;;;13.80;99.90;;;;;;5045616;28;20258;-89
2021/09/12 03:55:34;;;;;;;5.97;5.38;;;13.80;99.90;;;;;;5059928;28;20285;-89
2021/09/12 03:58:01;;;;;;;5.13;4.70;;;13.90;99.90;;;;;;5046554;28;20713;-91
2021/09/12 04:00:30;;;;;;;7.60;5.45;;;14.00;99.90;;;;;;5048674;28;20644;-90
2021/09/12 04:02:57;;;;;;;6.82;5.40;;;13.90;99.90;;;;;;5055152;28;20886;-90
2021/09/12 04:05:24;;;;;;;7.78;5.88;;;13.90;99.90;;;;;;5065317;28;20196;-90
2021/09/12 04:07:58;;;;;;;6.57;5.45;;;13.90;99.90;;;;;;5058139;28;20304;-90
2021/09/12 04:10:25;;;;;;;6.13;5.28;;;13.90;99.90;;;;;;5053348;28;20218;-91
2021/09/12 04:12:52;;;;;;;5.70;5.20;;;13.90;99.90;;;;;;5059395;28;20277;-90
2021/09/12 04:15:19;;;;;;;5.43;4.93;;;14.00;99.90;;;;;;5055652;28;20205;-90
2021/09/12 04:17:47;;;;;;;6.35;5.50;;;14.10;99.90;;;;;;5054520;28;20221;-90
2021/09/12 04:20:15;;;;;;;5.50;5.00;;;14.20;99.90;;;;;;5052579;28;20197;-90
2021/09/12 04:22:42;;;;;;;5.88;5.13;;;14.30;99.90;;;;;;5055330;28;20316;-90
2021/09/12 04:25:10;;;;;;;5.55;4.85;;;14.30;99.90;;;;;;5049955;28;20260;-90
2021/09/12 04:27:37;;;;;;;6.53;4.70;;;14.30;99.90;;;;;;5051938;28;20226;-90
2021/09/12 04:30:04;;;;;;;5.53;4.68;;;14.30;99.90;;;;;;5059394;28;20202;-90
2021/09/12 04:32:31;;;;;;;6.60;5.20;;;14.30;99.90;;;;;;5047572;28;20286;-90
2021/09/12 04:35:00;;;;;;;7.30;4.97;;;14.20;99.90;;;;;;5057424;28;20209;-90
2021/09/12 04:37:27;;;;;;;7.82;5.15;;;14.10;99.90;;;;;;5052694;28;20214;-89
2021/09/12 04:39:54;;;;;;;5.35;4.95;;;14.10;99.90;;;;;;5050324;28;20233;-90
2021/09/12 04:42:20;;;;;;;6.03;5.10;;;14.00;99.90;;;;;;5051081;28;20268;-90
2021/09/12 04:44:48;;;;;;;5.72;4.85;;;14.10;99.90;;;;;;5057459;28;20231;-90
2021/09/12 04:47:15;;;;;;;7.43;4.80;;;14.10;99.90;;;;;;5054702;28;20250;-90
2021/09/12 04:49:42;;;;;;;5.28;4.75;;;14.10;99.90;;;;;;5059251;28;20202;-89
2021/09/12 04:52:10;;;;;;;6.05;4.70;;;14.00;99.90;;;;;;5051430;28;20308;-89
2021/09/12 04:54:37;;;;;;;5.30;4.80;;;13.90;99.90;;;;;;5063786;28;20265;-89
2021/09/12 04:57:05;;;;;;;8.82;5.47;;;13.80;99.90;;;;;;5055769;28;20353;-89
2021/09/12 04:59:33;;;;;;;5.90;5.30;;;13.80;99.90;;;;;;5053645;28;20237;-90
2021/09/12 05:02:00;;;;;;;6.60;4.95;;;13.70;99.90;;;;;;5056350;28;20230;-91
2021/09/12 05:04:27;;;;;;;5.15;4.68;;;13.80;99.90;;;;;;5055291;28;20262;-90
2021/09/12 05:06:54;;;;;;;6.53;4.90;;;13.80;99.90;;;;;;5058229;28;20235;-89
2021/09/12 05:09:23;;;;;;;5.13;4.60;;;14.00;99.90;;;;;;5055911;28;20729;-90
2021/09/12 05:11:50;;;;;;;6.35;5.20;;;14.00;99.90;;;;;;5057130;28;20693;-89
2021/09/12 05:14:18;;;;;;;5.40;4.90;;;14.10;99.90;;;;;;5057647;28;20225;-90
2021/09/12 05:16:45;;;;;;;6.15;5.07;;;14.00;99.90;;;;;;5053255;28;20281;-90
2021/09/12 05:19:12;;;;;;;5.18;4.68;;;14.00;99.90;;;;;;5060987;28;20498;-90
2021/09/12 05:21:39;;;;;;;5.40;4.90;;;14.10;99.90;;;;;;5064599;28;20675;-90
2021/09/12 05:24:06;;;;;;;5.22;4.80;;;14.10;99.90;;;;;;5054098;28;20314;-90
2021/09/12 05:26:35;;;;;;;5.38;4.88;;;14.10;99.90;;;;;;5057225;28;20241;-90
2021/09/12 05:29:02;;;;;;;5.15;4.68;;;14.10;99.90;;;;;;5055589;28;20633;-90
2021/09/12 05:31:29;;;;;;;7.10;5.15;;;14.00;99.90;;;;;;5048739;28;20220;-89
2021/09/12 05:33:56;;;;;;;5.63;4.90;;;14.10;99.90;;;;;;5049518;28;20309;-90
2021/09/12 05:36:23;;;;;;;4.93;4.40;;;14.10;99.90;;;;;;5042229;28;20333;-91
2021/09/12 05:38:50;;;;;;;6.72;4.97;;;14.10;99.90;;;;;;5050996;28;20269;-90
2021/09/12 05:41:17;;;;;;;4.95;4.50;;;14.10;99.90;;;;;;5054828;28;20827;-90
2021/09/12 05:43:46;;;;;;;6.75;4.55;;;14.20;99.90;;;;;;5052950;28;20288;-90
2021/09/12 05:46:13;;;;;;;5.13;4.50;;;14.20;99.90;;;;;;5052772;28;20305;-89
2021/09/12 05:48:40;;;;;;;4.80;4.40;;;14.20;99.90;;;;;;5045975;28;20292;-90
2021/09/12 05:51:07;;;;;;;5.28;4.80;;;14.20;99.90;;;;;;5045827;28;20301;-90
2021/09/12 05:53:34;;;;;;;4.80;4.40;;;14.30;99.90;;;;;;5048379;28;20200;-90
2021/09/12 05:56:01;;;;;;;6.28;4.70;;;14.30;99.90;;;;;;5054874;28;20567;-90
2021/09/12 05:58:27;;;;;;;6.05;4.85;;;14.30;99.90;;;;;;5045926;28;20225;-90
2021/09/12 06:00:56;;;;;;;5.45;4.80;;;14.40;99.90;;;;;;5045302;28;20213;-90
2021/09/12 06:03:23;;;;;;;5.57;4.60;;;14.40;99.90;;;;;;5041592;28;20225;-90
2021/09/12 06:05:50;;;;;;;7.90;4.75;;;14.50;99.90;;;;;;5047662;28;20568;-90
2021/09/12 06:08:17;;;;;;;5.30;4.90;;;14.60;99.90;;;;;;5043964;28;20646;-90
2021/09/12 06:10:44;;;;;;;5.55;4.93;;;14.70;99.90;;;;;;5050827;28;20277;-90
2021/09/12 06:13:11;;;;;;;4.97;4.57;;;14.70;99.90;;;;;;5052323;28;20221;-91
2021/09/12 06:15:38;;;;;;;5.57;5.10;;;14.70;99.90;;;;;;5044739;28;20206;-90
2021/09/12 06:18:06;;;;;;;5.88;5.38;;;14.70;99.90;;;;;;5053589;28;20225;-89
2021/09/12 06:20:33;;;;;;;5.90;4.80;;;14.80;99.90;;;;;;5051333;28;20212;-90
2021/09/12 06:23:01;;;;;;;5.72;5.13;;;14.90;99.90;;;;;;5056053;28;20795;-91
2021/09/12 06:25:28;;;;;;;5.68;5.18;;;15.00;99.90;;;;;;5053980;28;20290;-90
2021/09/12 06:27:55;;;;;;;5.72;5.18;;;15.00;99.90;;;;;;5047540;28;20227;-90
2021/09/12 06:30:21;;;;;;;5.32;4.93;;;15.10;99.90;;;;;;5043146;28;20217;-90
2021/09/12 06:32:49;;;;;;;6.50;5.93;;;15.20;99.90;;;;;;5055215;28;20227;-90
2021/09/12 06:35:17;;;;;;;6.60;5.70;;;15.30;99.90;;;;;;5049007;28;20788;-89
2021/09/12 06:37:44;;;;;;;7.53;5.25;;;15.40;99.90;;;;;;5047555;28;20788;-90
2021/09/12 06:40:12;;;;;;;6.90;5.68;;;15.50;99.90;;;;;;5033330;28;20190;-90
2021/09/12 06:42:39;;;;;;;6.20;5.22;;;15.70;99.90;;;;;;5046271;28;20238;-92
2021/09/12 06:45:08;;;;;;;6.70;6.10;;;15.80;99.90;;;;;;5044772;28;20218;-89
2021/09/12 06:47:35;;;;;;;6.28;5.68;;;16.00;99.90;;;;;;5047667;28;20285;-89
2021/09/12 06:50:02;;;;;;;8.70;6.47;;;16.00;99.90;;;;;;5041637;28;20702;-89
2021/09/12 06:52:32;;;;;;;7.25;6.55;;;16.10;99.90;;;;;;5042529;28;20230;-89
2021/09/12 06:54:59;;;;;;;7.38;6.70;;;16.10;99.90;;;;;;5036122;28;20249;-89
2021/09/12 06:57:26;;;;;;;7.93;6.53;;;16.20;99.90;;;;;;5038869;28;20309;-90
2021/09/12 06:59:53;;;;;;;7.18;6.47;;;16.20;99.90;;;;;;5022655;28;20207;-90
2021/09/12 07:02:20;;;;;;;6.90;6.05;;;16.30;99.90;;;;;;5040914;28;20311;-89
2021/09/12 07:04:47;;;;;;;7.82;7.03;;;16.50;99.90;;;;;;5045213;28;20696;-90
2021/09/12 07:07:14;;;;;;;8.43;7.13;;;16.60;99.90;;;;;;5048842;28;20335;-88
2021/09/12 07:09:54;;;;;;;8.10;7.30;;;16.70;99.90;;;;;;5040197;28;20197;-88
2021/09/12 07:12:21;;;;;;;11.68;7.82;;;16.80;99.90;;;;;;5050566;28;20222;-89
2021/09/12 07:14:48;;;;;;;8.45;7.65;;;17.00;99.90;;;;;;5043125;28;20236;-88
2021/09/12 07:17:15;;;;;;;7.47;6.78;;;17.20;99.70;;;;;;5039297;28;20219;-88
2021/09/12 07:19:42;;;;;;;7.90;7.07;;;17.30;99.40;;;;;;5028809;28;20204;-88
2021/09/12 07:22:09;;;;;;;8.93;8.02;;;17.40;98.90;;;;;;5028504;28;20308;-88
2021/09/12 07:24:38;;;;;;;7.63;6.82;;;17.50;98.40;;;;;;5040894;28;20380;-89
2021/09/12 07:27:07;;;;;;;8.68;7.30;;;17.90;97.60;;;;;;5019585;28;20249;-89
2021/09/12 07:29:35;;;;;;;8.23;7.43;;;18.00;97.20;;;;;;5036006;28;20201;-89
2021/09/12 07:32:02;;;;;;;8.38;7.55;;;18.10;97.60;;;;;;5030129;28;20312;-89
2021/09/12 07:34:29;;;;;;;9.02;7.50;;;18.00;97.30;;;;;;5052989;28;20190;-89
2021/09/12 07:36:56;;;;;;;8.80;7.90;;;17.90;97.60;;;;;;5029235;28;20689;-88
2021/09/12 07:39:24;;;;;;;8.20;7.40;;;17.90;97.20;;;;;;5047382;28;20294;-89
2021/09/12 07:41:51;;;;;;;7.93;7.13;;;17.80;97.60;;;;;;5050140;28;20223;-89
2021/09/12 07:44:20;;;;;;;14.77;7.20;;;18.10;97.60;;;;;;5039709;28;20254;-89
2021/09/12 07:46:47;;;;;;;8.55;7.85;;;18.30;97.40;;;;;;5041006;28;20574;-89
2021/09/12 07:49:14;;;;;;;7.93;7.22;;;18.40;96.40;;;;;;5041621;28;20240;-89
2021/09/12 07:51:41;;;;;;;8.48;7.55;;;18.50;96.30;;;;;;5051605;28;20231;-89
2021/09/12 07:54:08;;;;;;;8.15;7.38;;;18.60;96.00;;;;;;5060059;28;20202;-92
2021/09/12 07:56:35;;;;;;;7.28;6.57;;;18.80;95.80;;;;;;5031739;28;20337;-92
2021/09/12 07:59:02;;;;;;;7.25;6.55;;;19.00;95.20;;;;;;5041752;28;20652;-89
2021/09/12 08:01:31;;;;;;;8.55;7.50;;;19.10;94.80;;;;;;5030192;28;20237;-93
2021/09/12 08:03:59;;;;;;;7.20;6.50;;;19.10;93.90;;;;;;5032684;28;20217;-92
2021/09/12 08:06:32;;;;;;;7.53;6.82;;;19.20;94.90;;;;;;5025353;28;20224;-92
2021/09/12 08:08:59;;;;;;;11.48;7.90;;;19.30;94.50;;;;;;5036215;28;20225;-91
2021/09/12 08:11:26;;;;;;;8.80;6.70;;;19.00;93.90;;;;;;5040301;28;20240;-91
2021/09/12 08:13:53;;;;;;;9.65;6.80;;;19.00;94.40;;;;;;5034638;28;20281;-90
2021/09/12 08:16:21;;;;;;;8.38;6.00;;;19.10;94.70;;;;;;5041749;28;20228;-91
2021/09/12 08:19:01;;;;;;;7.82;6.90;;;19.20;95.10;;;;;;5046198;28;20209;-91
2021/09/12 08:21:39;;;;;;;7.82;6.80;;;19.30;94.00;;;;;;5014486;28;20224;-91
2021/09/12 08:24:11;;;;;;;11.15;8.48;;;19.30;94.40;;;;;;5035909;28;20225;-89
2021/09/12 08:26:43;;;;;;;7.25;6.55;;;19.60;93.60;;;;;;5034741;28;20235;-89
2021/09/12 08:29:10;;;;;;;6.80;6.20;;;19.60;93.00;;;;;;5052422;28;20229;-90
2021/09/12 08:31:45;;;;;;;6.55;5.95;;;19.70;92.60;;;;;;5050990;28;20230;-87
2021/09/12 08:36:57;;;;;;;7.00;6.10;;;20.10;91.90;;;;;;5054366;28;20290;-86
2021/09/12 08:39:24;;;;;;;9.18;5.80;;;20.30;92.00;;;;;;5048773;28;20284;-83
2021/09/12 08:41:51;;;;;;;7.57;5.50;;;20.80;89.50;;;;;;5048473;28;20230;-84
2021/09/12 08:44:19;;;;;;;5.82;5.22;;;20.80;88.00;;;;;;5052603;28;20225;-85
2021/09/12 08:46:46;;;;;;;5.70;5.20;;;20.90;88.10;;;;;;5044434;28;20226;-86
2021/09/12 08:49:16;;;;;;;5.07;4.68;;;21.20;87.50;;;;;;5047286;28;20205;-84
2021/09/12 08:51:43;;;;;;;6.40;5.50;;;21.30;86.20;;;;;;5044353;28;20228;-85
2021/09/12 08:54:10;;;;;;;5.75;5.15;;;21.20;83.40;;;;;;5041391;28;20233;-84
2021/09/12 08:56:37;;;;;;;4.82;4.43;;;21.20;81.70;;;;;;5054347;28;20226;-85
2021/09/12 08:59:04;;;;;;;5.38;4.88;;;21.30;82.90;;;;;;5053354;28;20224;-84
2021/09/12 09:01:33;;;;;;;6.38;5.78;;;21.20;80.70;;;;;;5059844;28;20238;-85
2021/09/12 09:04:01;;;;;;;6.32;5.60;;;21.10;80.10;;;;;;5050382;28;20252;-87
2021/09/12 09:09:46;;;;;;;4.40;3.97;;;23.40;72.60;;;;;;5038067;28;20547;-83
2021/09/12 09:12:30;;;;;;;4.93;4.50;;;26.30;46.40;;;;;;5049116;28;20257;-84
2021/09/12 09:15:13;;;;;;;4.97;4.57;;;28.40;36.10;;;;;;5034418;28;20208;-84
2021/09/12 09:17:42;;;;;;;5.93;5.13;;;29.30;30.70;;;;;;5038841;28;20229;-84
2021/09/12 09:20:11;;;;;;;6.20;4.80;;;30.00;29.10;;;;;;5047119;28;20202;-86
2021/09/12 09:22:46;;;;;;;4.90;4.50;;;29.90;26.00;;;;;;5045363;28;20728;-86
2021/09/12 09:25:16;;;;;;;4.25;3.95;;;31.00;25.00;;;;;;5045279;28;20557;-84
2021/09/12 09:28:00;;;;;;;4.72;4.32;;;32.00;23.30;;;;;;5046572;28;20316;-84
2021/09/12 09:30:29;;;;;;;5.53;5.13;;;32.50;21.00;;;;;;5054170;28;20251;-85
2021/09/12 09:33:18;;;;;;;4.80;4.45;;;33.30;19.50;;;;;;5048687;28;20233;-83
2021/09/12 09:35:54;;;;;;;4.47;4.18;;;34.10;18.70;;;;;;5060033;28;20189;-86
2021/09/12 09:38:24;;;;;;;5.10;4.70;;;35.00;19.10;;;;;;5053703;28;20219;-83
2021/09/12 09:41:03;;;;;;;5.53;4.68;;;34.80;16.60;;;;;;5043286;28;20202;-84
2021/09/12 09:43:45;;;;;;;67.90;62.45;;;35.10;16.60;;;;;;5048714;28;20259;-89
2021/09/12 09:46:33;;;;;;;6.70;6.20;;;31.90;20.40;;;;;;5042071;28;20222;-88
2021/09/12 09:49:21;;;;;;;5.50;5.00;;;32.80;19.30;;;;;;5041793;28;20626;-89
2021/09/12 09:51:50;;;;;;;5.25;4.90;;;33.00;18.10;;;;;;5044482;28;20781;-88
2021/09/12 09:54:20;;;;;;;5.80;5.30;;;33.40;19.20;;;;;;5043272;28;20205;-89
2021/09/12 09:56:58;;;;;;;5.43;5.03;;;33.40;18.30;;;;;;5047450;28;20281;-88
2021/09/12 09:59:27;;;;;;;5.03;4.53;;;31.60;20.00;;;;;;5041038;28;20190;-89
2021/09/12 10:01:55;;;;;;;4.22;3.92;;;30.50;24.20;;;;;;5048025;28;20225;-88
2021/09/12 10:04:25;;;;;;;5.00;4.60;;;29.40;27.20;;;;;;5041478;28;20217;-88
2021/09/12 10:06:52;;;;;;;4.53;4.20;;;28.30;28.90;;;;;;5042147;28;20606;-84
2021/09/12 10:09:21;;;;;;;5.15;4.75;;;27.50;31.10;;;;;;5041622;28;20197;-82
2021/09/12 10:11:52;;;;;;;5.20;4.60;;;26.40;34.90;;;;;;5044474;28;20257;-83
2021/09/12 10:14:25;;;;;;;4.20;3.88;;;25.50;36.50;;;;;;5046509;28;20206;-84
2021/09/12 10:16:53;;;;;;;4.63;4.25;;;25.80;40.00;;;;;;5039351;28;20221;-84
2021/09/12 10:19:38;;;;;;;4.00;3.70;;;26.60;37.20;;;;;;5046059;28;20240;-84
2021/09/12 10:22:12;;;;;;;4.35;3.95;;;28.30;33.80;;;;;;5051756;28;20580;-84
2021/09/12 10:25:11;;;;;;;4.90;4.50;;;29.50;28.20;;;;;;5053148;28;20707;-85
2021/09/12 10:27:41;;;;;;;4.40;4.10;;;28.10;27.90;;;;;;5048612;28;20228;-85
2021/09/12 10:30:37;;;;;;;4.50;4.10;;;28.90;29.10;;;;;;5055105;28;20205;-85
2021/09/12 10:33:19;;;;;;;6.20;4.20;;;29.30;26.70;;;;;;5038383;28;20252;-86
2021/09/12 10:36:02;;;;;;;3.85;3.55;;;30.50;26.30;;;;;;5052811;28;20618;-87
2021/09/12 10:38:35;;;;;;;4.53;4.13;;;30.60;23.30;;;;;;5045399;28;20216;-87
2021/09/12 10:41:18;;;;;;;4.35;4.03;;;30.50;24.40;;;;;;5048052;28;20250;-86
2021/09/12 10:43:52;;;;;;;4.30;4.00;;;30.80;22.50;;;;;;5049491;28;20228;-87
2021/09/12 10:46:30;;;;;;;4.47;4.10;;;30.90;22.20;;;;;;5041251;28;20220;-87
2021/09/12 10:49:11;;;;;;;5.22;4.45;;;31.00;23.20;;;;;;5042462;28;20244;-87
2021/09/12 10:51:43;;;;;;;3.92;3.63;;;30.70;25.80;;;;;;5043552;28;20225;-85
2021/09/12 10:54:12;;;;;;;4.22;3.92;;;30.70;24.00;;;;;;5053085;28;20243;-85
2021/09/12 10:56:41;;;;;;;6.10;4.50;;;31.00;21.80;;;;;;5051968;28;20308;-86
2021/09/12 10:59:11;;;;;;;4.07;3.78;;;30.40;21.10;;;;;;5030937;28;20220;-86
2021/09/12 11:01:42;;;;;;;4.28;3.97;;;29.60;24.20;;;;;;5048523;28;20243;-88
2021/09/12 11:04:15;;;;;;;4.72;4.32;;;30.10;24.70;;;;;;5047265;28;20565;-85
2021/09/12 11:06:44;;;;;;;4.38;4.00;;;29.80;25.10;;;;;;5052848;28;20701;-84
2021/09/12 11:09:21;;;;;;;5.95;4.22;;;28.70;26.80;;;;;;5044659;28;20653;-86
2021/09/12 11:11:54;;;;;;;4.07;3.72;;;27.90;27.10;;;;;;5044026;28;20231;-85
2021/09/12 11:14:21;;;;;;;4.78;3.80;;;27.20;31.90;;;;;;5050742;28;20276;-86
2021/09/12 11:16:48;;;;;;;3.80;3.50;;;26.90;34.70;;;;;;5043095;28;20233;-86
2021/09/12 11:19:18;;;;;;;4.40;3.70;;;26.40;32.50;;;;;;5054893;28;20208;-87
2021/09/12 11:21:46;;;;;;;4.57;3.47;;;26.00;32.10;;;;;;5044528;28;20221;-86
2021/09/12 11:24:15;;;;;;;3.88;3.47;;;26.10;32.70;;;;;;5044720;28;20224;-82
2021/09/12 11:26:49;;;;;;;3.70;3.40;;;26.10;34.90;;;;;;5050032;28;20304;-81
2021/09/12 11:29:19;;;;;;;3.75;3.45;;;25.90;36.80;;;;;;5055299;28;20223;-85
2021/09/12 11:31:49;;;;;;;3.42;3.13;;;25.60;36.00;;;;;;5031558;28;20225;-83
2021/09/12 11:34:18;;;;;;;5.88;3.35;;;25.50;36.50;;;;;;5033530;28;20217;-82
2021/09/12 11:36:50;;;;;;;4.20;3.50;;;25.50;38.20;;;;;;5055082;28;20236;-84
2021/09/12 11:39:21;;;;;;;3.30;3.03;;;25.20;36.90;;;;;;5058538;28;20282;-84
2021/09/12 11:41:50;;;;;;;5.50;3.50;;;25.30;39.90;;;;;;5049046;28;20332;-80
2021/09/12 11:44:18;;;;;;;3.72;3.42;;;25.60;35.80;;;;;;5054941;28;20371;-80
2021/09/12 11:46:46;;;;;;;4.18;3.40;;;25.60;36.60;;;;;;5052377;28;20221;-81
2021/09/12 11:49:14;;;;;;;3.88;3.58;;;25.60;36.60;;;;;;5058149;28;20256;-81
2021/09/12 11:55:19;;;;;;;3.85;3.55;;;25.10;37.20;;;;;;5066904;28;20186;-83
2021/09/12 12:01:03;;;;;;;3.58;3.20;;;25.50;39.50;;;;;;5063917;28;20557;-83
2021/09/12 12:03:31;;;;;;;5.03;3.30;;;25.80;36.70;;;;;;5057387;28;20638;-82
2021/09/12 12:05:59;;;;;;;4.72;2.67;;;25.60;36.60;;;;;;5056336;28;20186;-82
2021/09/12 12:15:47;;;;;;;5.38;3.30;;;23.80;44.30;;;;;;5035912;28;20190;-85
2021/09/12 12:18:16;;;;;;;3.67;3.38;;;23.50;46.40;;;;;;5038586;28;20218;-86
2021/09/12 12:20:45;;;;;;;3.38;3.08;;;23.60;43.50;;;;;;5056916;28;20205;-87
2021/09/12 12:23:17;;;;;;;3.40;3.20;;;23.90;42.20;;;;;;5054850;28;20660;-88
2021/09/12 12:25:45;;;;;;;3.50;3.17;;;24.20;40.30;;;;;;5059688;28;20222;-87
2021/09/12 12:28:17;;;;;;;3.97;3.47;;;24.40;38.10;;;;;;5054515;28;20222;-87
2021/09/12 12:31:10;;;;;;;13.48;12.23;;;24.40;38.70;;;;;;5060153;28;20232;-89
2021/09/12 12:33:38;;;;;;;3.33;3.13;;;24.30;38.70;;;;;;5049865;28;20227;-87
2021/09/12 12:36:08;;;;;;;3.55;3.25;;;24.30;40.60;;;;;;5056383;28;20288;-90
2021/09/12 12:38:36;;;;;;;3.75;2.95;;;24.60;39.40;;;;;;5047548;28;20785;-91
2021/09/12 12:41:05;;;;;;;3.63;3.33;;;24.60;39.70;;;;;;5045441;28;20541;-89
2021/09/12 12:43:32;;;;;;;3.40;3.10;;;24.80;38.00;;;;;;5048768;28;20587;-88
2021/09/12 12:46:01;;;;;;;3.55;3.28;;;24.80;36.10;;;;;;5043866;28;20225;-88
2021/09/12 12:48:29;;;;;;;3.50;3.20;;;24.70;38.90;;;;;;5045831;28;20205;-87
2021/09/12 12:50:56;;;;;;;3.08;2.88;;;24.70;36.00;;;;;;5043254;28;20206;-91
2021/09/12 12:53:26;;;;;;;3.40;3.10;;;24.50;35.80;;;;;;5039511;28;20207;-92
2021/09/12 12:55:55;;;;;;;4.93;3.10;;;24.40;35.80;;;;;;5042903;28;20201;-92
2021/09/12 12:58:23;;;;;;;3.40;3.10;;;24.40;36.80;;;;;;5043103;28;20205;-91
2021/09/12 13:00:52;;;;;;;2.92;2.63;;;24.40;38.30;;;;;;5055634;28;20570;-90
2021/09/12 13:03:27;;;;;;;4.22;2.83;;;24.50;36.60;;;;;;5050212;28;20214;-89
2021/09/12 13:05:54;;;;;;;3.47;3.17;;;24.70;37.30;;;;;;5043581;28;20217;-87
2021/09/12 13:08:26;;;;;;;4.03;2.80;;;24.60;37.50;;;;;;5045615;28;20195;-87
2021/09/12 13:10:53;;;;;;;4.20;3.17;;;24.40;37.90;;;;;;5044307;28;20564;-88
2021/09/12 13:13:20;;;;;;;4.10;3.05;;;24.50;39.20;;;;;;5050506;28;20216;-87
2021/09/12 13:15:48;;;;;;;3.65;2.90;;;24.60;38.30;;;;;;5065729;28;20275;-87